Time;durP1;ratioP1;P1;durP2;ratioP2;P2;SDS_P1;SDS_P2;PMS_P1;PMS_P2;Temp;Humidity;BMP_temperature;BMP_pressure;BME280_temperature;BME280_humidity;BME280_pressure;Samples;Min_cycle;Max_cycle;Signal;HPM_P1;HPM_P2
2021/05/12 00:02:22;;;;;;;4.65;2.10;;;;;;;20.31;40.92;99967.12;1841048;76;21076;-70
2021/05/12 00:04:48;;;;;;;2.87;1.80;;;;;;;20.25;40.60;99981.52;1788147;76;21075;-70
2021/05/12 00:07:14;;;;;;;4.33;2.02;;;;;;;20.18;40.03;99972.96;1855243;76;21033;-70
2021/05/12 00:09:40;;;;;;;3.50;1.90;;;;;;;20.10;39.87;99970.58;1838920;76;22308;-70
2021/05/12 00:12:08;;;;;;;1.92;1.72;;;;;;;20.05;39.91;99974.48;1814471;77;21145;-70
2021/05/12 00:14:36;;;;;;;3.70;2.00;;;;;;;20.04;39.91;99978.22;1801695;77;21076;-70
2021/05/12 00:17:04;;;;;;;4.00;2.20;;;;;;;20.04;39.83;99975.52;1732336;80;21175;-68
2021/05/12 00:19:33;;;;;;;3.42;1.70;;;;;;;20.03;39.67;99974.70;1775996;79;21043;-69
2021/05/12 00:22:14;;;;;;;2.72;2.05;;;;;;;20.03;39.57;99979.28;1786548;78;21052;-68
2021/05/12 00:24:27;;;;;;;4.30;2.02;;;;;;;20.03;39.45;99974.70;1832026;77;21267;-69
2021/05/12 00:26:53;;;;;;;2.35;1.85;;;;;;;20.01;39.29;99980.84;1854399;76;21041;-69
2021/05/12 00:29:19;;;;;;;2.20;1.82;;;;;;;20.00;39.01;99968.94;1821312;77;21064;-69
2021/05/12 00:31:45;;;;;;;4.47;2.10;;;;;;;19.95;38.63;99971.47;1838806;76;21057;-68
2021/05/12 00:34:11;;;;;;;3.10;1.80;;;;;;;19.88;38.38;99970.73;1836228;76;21140;-69
2021/05/12 00:36:37;;;;;;;2.12;1.62;;;;;;;19.83;38.42;99973.55;1846573;77;21110;-68
2021/05/12 00:39:05;;;;;;;9.13;1.80;;;;;;;19.80;38.48;99978.06;1788379;79;21614;-70
2021/05/12 00:41:31;;;;;;;3.27;2.08;;;;;;;19.79;38.44;99980.44;1778951;79;21032;-68
2021/05/12 00:43:57;;;;;;;4.50;2.27;;;;;;;19.78;38.36;99980.66;1834921;76;21023;-69
2021/05/12 00:46:25;;;;;;;4.03;2.20;;;;;;;19.76;38.37;99978.20;1842276;76;21028;-70
2021/05/12 00:48:53;;;;;;;6.95;2.37;;;;;;;19.73;38.32;99979.99;1843339;76;21556;-70
2021/05/12 00:51:19;;;;;;;4.08;2.35;;;;;;;19.70;38.34;99973.69;1829051;75;21012;-70
2021/05/12 00:53:45;;;;;;;4.53;2.55;;;;;;;19.68;38.28;99969.01;1827333;77;21541;-71
2021/05/12 00:56:12;;;;;;;6.55;2.72;;;;;;;19.65;38.22;99964.08;1807090;76;21052;-68
2021/05/12 00:58:38;;;;;;;6.10;2.72;;;;;;;19.63;38.14;99964.30;1855385;76;21067;-68
2021/05/12 01:01:05;;;;;;;6.33;2.45;;;;;;;19.61;38.04;99967.73;1834772;76;21607;-69
2021/05/12 01:03:31;;;;;;;6.10;2.42;;;;;;;19.58;37.88;99972.22;1832334;76;21013;-68
2021/05/12 01:06:02;;;;;;;3.20;1.90;;;;;;;19.54;37.84;99970.20;1820209;77;21051;-69
2021/05/12 01:08:29;;;;;;;4.25;2.08;;;;;;;19.50;37.65;99971.69;1817281;77;21045;-70
2021/05/12 01:10:56;;;;;;;4.15;1.77;;;;;;;19.45;37.60;99982.61;1804741;78;21714;-68
2021/05/12 01:13:24;;;;;;;3.08;1.72;;;;;;;19.40;37.50;99970.84;1849242;76;21876;-70
2021/05/12 01:15:50;;;;;;;3.52;1.62;;;;;;;19.36;37.55;99970.45;1824591;77;21024;-69
2021/05/12 01:18:20;;;;;;;2.95;1.60;;;;;;;19.33;37.54;99967.37;1814266;76;21039;-69
2021/05/12 01:21:00;;;;;;;5.37;1.90;;;;;;;19.29;37.57;99957.55;1819717;77;21033;-68
2021/05/12 01:23:29;;;;;;;3.75;1.70;;;;;;;19.26;37.54;99949.93;1802159;76;21151;-69
2021/05/12 01:25:56;;;;;;;7.65;2.10;;;;;;;19.22;37.66;99966.23;1833541;77;21087;-69
2021/05/12 01:28:24;;;;;;;4.37;2.00;;;;;;;19.18;37.73;99970.37;1841061;77;21037;-69
2021/05/12 01:31:04;;;;;;;5.37;2.20;;;;;;;19.16;37.78;99973.31;1820425;77;21105;-68
2021/05/12 01:33:30;;;;;;;5.60;2.60;;;;;;;19.14;37.80;99969.17;1837784;76;21065;-67
2021/05/12 01:35:58;;;;;;;7.17;2.83;;;;;;;19.10;37.79;99966.61;1798403;77;21109;-68
2021/05/12 01:38:26;;;;;;;6.08;2.62;;;;;;;19.06;37.85;99967.57;1801554;77;21037;-68
2021/05/12 01:40:54;;;;;;;5.60;2.30;;;;;;;19.02;37.91;99975.25;1805915;78;21017;-67
2021/05/12 01:43:20;;;;;;;6.37;2.58;;;;;;;19.00;37.94;99969.80;1822470;76;21045;-68
2021/05/12 01:45:47;;;;;;;4.47;2.52;;;;;;;18.93;37.93;99966.31;1818518;77;21631;-67
2021/05/12 01:48:13;;;;;;;5.85;2.37;;;;;;;18.94;37.90;99972.83;1839374;77;21050;-69
2021/05/12 01:50:40;;;;;;;2.92;1.95;;;;;;;18.90;37.94;99970.80;1794980;75;21068;-69
2021/05/12 01:53:07;;;;;;;6.42;3.35;;;;;;;18.83;37.94;99966.80;1847096;75;21556;-67
2021/05/12 01:55:33;;;;;;;3.67;2.35;;;;;;;18.78;38.02;99960.69;1842271;75;21064;-69
2021/05/12 01:57:59;;;;;;;3.00;1.92;;;;;;;18.75;38.09;99977.79;1820089;77;21029;-68
2021/05/12 02:00:36;;;;;;;3.50;1.82;;;;;;;18.72;38.16;99983.09;1837212;75;21126;-70
2021/05/12 02:03:08;;;;;;;2.08;1.60;;;;;;;18.71;38.16;99985.99;1794178;78;21096;-69
2021/05/12 02:05:36;;;;;;;2.47;1.50;;;;;;;18.63;38.10;99985.72;1843880;75;21026;-70
2021/05/12 02:08:05;;;;;;;2.47;1.45;;;;;;;18.52;38.20;99985.86;1796190;77;21108;-69
2021/05/12 02:10:33;;;;;;;1.90;1.60;;;;;;;18.44;38.41;99984.77;1823108;75;21544;-69
2021/05/12 02:12:59;;;;;;;2.30;1.35;;;;;;;18.39;38.50;99993.49;1811609;77;22550;-67
2021/05/12 02:15:25;;;;;;;2.40;1.60;;;;;;;18.36;38.65;99995.25;1816691;77;21045;-69
2021/05/12 02:17:53;;;;;;;3.80;1.60;;;;;;;18.34;38.72;99977.16;1853152;75;21084;-69
2021/05/12 02:20:31;;;;;;;1.87;1.60;;;;;;;18.31;38.81;99977.61;1813836;77;21126;-69
2021/05/12 02:22:58;;;;;;;2.47;1.27;;;;;;;18.28;38.88;99986.09;1832616;75;21033;-69
2021/05/12 02:25:25;;;;;;;2.55;1.87;;;;;;;18.23;38.96;99992.61;1854998;75;21103;-68
2021/05/12 02:27:52;;;;;;;1.52;1.40;;;;;;;18.21;39.06;100004.09;1858545;75;21111;-68
2021/05/12 02:30:18;;;;;;;2.05;1.35;;;;;;;18.19;39.12;99994.08;1848798;75;21023;-69
2021/05/12 02:32:44;;;;;;;1.40;1.30;;;;;;;18.18;39.19;100003.19;1825338;77;21628;-70
2021/05/12 02:35:11;;;;;;;1.57;1.47;;;;;;;18.17;39.25;100017.13;1853701;75;21011;-69
2021/05/12 02:37:38;;;;;;;1.47;1.30;;;;;;;18.16;39.31;100010.12;1834006;75;21131;-69
2021/05/12 02:40:07;;;;;;;1.60;1.22;;;;;;;18.13;39.39;100009.71;1813528;75;21627;-68
2021/05/12 02:42:33;;;;;;;2.40;1.32;;;;;;;18.11;39.43;100021.20;1813828;77;21033;-68
2021/05/12 02:44:59;;;;;;;2.12;1.22;;;;;;;18.11;39.48;100018.51;1752298;80;21024;-69
2021/05/12 02:47:25;;;;;;;1.60;1.42;;;;;;;18.10;39.60;100015.00;1777333;79;21056;-68
2021/05/12 02:49:51;;;;;;;1.47;1.37;;;;;;;18.09;39.60;100016.02;1765137;79;21291;-68
2021/05/12 02:52:17;;;;;;;2.35;1.57;;;;;;;18.08;39.65;100013.05;1799819;79;21544;-69
2021/05/12 02:54:44;;;;;;;1.62;1.52;;;;;;;18.06;39.68;100017.28;1783468;79;21088;-69
2021/05/12 02:57:10;;;;;;;2.30;1.45;;;;;;;18.06;39.72;100017.80;1790625;78;21613;-69
2021/05/12 02:59:36;;;;;;;1.50;1.40;;;;;;;18.05;39.72;100012.11;1778962;79;21025;-69
2021/05/12 03:02:03;;;;;;;2.45;1.30;;;;;;;18.05;39.80;100013.45;1800459;79;21040;-70
2021/05/12 03:04:29;;;;;;;2.25;1.45;;;;;;;18.02;39.77;100009.83;1784895;79;21506;-70
2021/05/12 03:06:58;;;;;;;1.40;1.30;;;;;;;18.01;39.80;100015.73;1794066;78;21023;-70
2021/05/12 03:09:25;;;;;;;1.67;1.40;;;;;;;18.00;39.83;100014.59;1798209;79;21150;-69
2021/05/12 03:11:51;;;;;;;2.85;1.67;;;;;;;17.99;39.91;100018.33;1845189;76;21025;-70
2021/05/12 03:14:18;;;;;;;1.65;1.30;;;;;;;17.97;39.97;100015.84;1817266;76;22609;-71
2021/05/12 03:16:44;;;;;;;2.58;1.60;;;;;;;17.97;39.94;100013.69;1834077;76;21100;-69
2021/05/12 03:19:10;;;;;;;1.32;1.22;;;;;;;17.95;39.96;100013.89;1822775;76;21046;-69
2021/05/12 03:21:36;;;;;;;1.62;1.25;;;;;;;17.95;40.08;100009.04;1801910;77;21048;-68
2021/05/12 03:24:06;;;;;;;2.08;1.80;;;;;;;17.95;40.10;100007.70;1814556;77;22243;-71
2021/05/12 03:26:33;;;;;;;1.75;1.30;;;;;;;17.94;40.12;100010.06;1860827;76;21061;-71
2021/05/12 03:29:00;;;;;;;1.50;1.40;;;;;;;17.93;40.15;100005.21;1817237;77;21033;-71
2021/05/12 03:31:26;;;;;;;4.65;1.65;;;;;;;17.92;40.12;100004.89;1833444;76;21037;-68
2021/05/12 03:33:55;;;;;;;1.35;1.25;;;;;;;17.92;40.16;100002.20;1841225;76;21146;-68
2021/05/12 03:36:21;;;;;;;1.42;1.32;;;;;;;17.94;40.15;100000.13;1836863;77;21568;-69
2021/05/12 03:38:47;;;;;;;2.72;1.60;;;;;;;17.96;40.17;100001.27;1812894;77;21084;-70
2021/05/12 03:41:13;;;;;;;2.12;1.50;;;;;;;17.95;40.14;99999.11;1797543;77;21077;-69
2021/05/12 03:43:40;;;;;;;4.53;1.85;;;;;;;17.96;40.12;99998.58;1788394;76;21064;-70
2021/05/12 03:46:06;;;;;;;1.57;1.32;;;;;;;17.97;40.12;99997.55;1823906;76;21612;-69
2021/05/12 03:48:32;;;;;;;2.12;1.15;;;;;;;17.99;40.14;99998.98;1820814;76;21020;-69
2021/05/12 03:50:58;;;;;;;1.45;1.35;;;;;;;18.01;40.11;99997.44;1777948;79;21929;-69
2021/05/12 03:53:25;;;;;;;1.40;1.30;;;;;;;18.03;40.00;100001.56;1825161;77;21026;-70
2021/05/12 03:55:51;;;;;;;2.12;1.37;;;;;;;18.05;39.99;100005.39;1806268;77;21776;-70
2021/05/12 03:58:18;;;;;;;1.22;1.12;;;;;;;18.09;39.96;99998.55;1816666;77;21132;-70
2021/05/12 04:00:45;;;;;;;2.67;1.10;;;;;;;18.13;39.92;99993.58;1857797;76;21104;-70
2021/05/12 04:03:13;;;;;;;2.35;1.20;;;;;;;18.14;39.87;99988.00;1837090;76;21072;-71
2021/05/12 04:05:39;;;;;;;1.30;1.20;;;;;;;18.18;39.90;99987.06;1824739;76;21034;-72
2021/05/12 04:08:05;;;;;;;1.75;1.65;;;;;;;18.17;39.83;99982.70;1851209;76;21080;-70
2021/05/12 04:10:32;;;;;;;1.40;1.17;;;;;;;18.20;39.79;99990.36;1820534;76;21057;-71
2021/05/12 04:13:00;;;;;;;5.47;1.72;;;;;;;18.25;39.85;99992.72;1814182;77;21558;-70
2021/05/12 04:15:26;;;;;;;2.25;1.70;;;;;;;18.33;39.81;100000.23;1840896;76;21134;-70
2021/05/12 04:17:52;;;;;;;2.75;1.05;;;;;;;18.38;39.76;100000.42;1804667;78;21054;-69
2021/05/12 04:20:19;;;;;;;2.95;1.35;;;;;;;18.44;39.72;100004.95;1815619;78;22521;-68
2021/05/12 04:22:46;;;;;;;1.90;1.40;;;;;;;18.50;39.67;100003.27;1807789;77;21116;-70
2021/05/12 04:25:18;;;;;;;1.27;1.17;;;;;;;18.54;39.59;100001.80;1803154;78;21074;-70
2021/05/12 04:27:45;;;;;;;2.02;1.30;;;;;;;18.60;39.56;100000.94;1805840;78;21667;-70
2021/05/12 04:30:13;;;;;;;1.32;1.10;;;;;;;18.69;39.49;100004.22;1810106;78;21102;-70
2021/05/12 04:32:40;;;;;;;1.20;0.82;;;;;;;18.70;39.39;99998.63;1777590;78;21127;-69
2021/05/12 04:35:08;;;;;;;3.52;1.27;;;;;;;18.71;39.28;99999.45;1863527;76;21020;-69
2021/05/12 04:37:34;;;;;;;1.62;1.10;;;;;;;18.70;39.39;99994.59;1846907;77;21075;-69
2021/05/12 04:40:01;;;;;;;1.20;1.10;;;;;;;18.70;39.41;99993.75;1822092;76;21044;-69
2021/05/12 04:42:27;;;;;;;2.83;1.10;;;;;;;18.71;39.39;99988.69;1819272;77;21123;-69
2021/05/12 04:44:53;;;;;;;1.77;1.10;;;;;;;18.73;39.38;99990.64;1813887;77;21006;-70
2021/05/12 04:47:20;;;;;;;1.87;1.15;;;;;;;18.72;39.33;99983.63;1838673;76;21024;-67
2021/05/12 04:49:47;;;;;;;1.12;1.00;;;;;;;18.71;39.24;99985.99;1814612;77;21056;-68
2021/05/12 04:52:14;;;;;;;1.40;1.15;;;;;;;18.70;39.27;99989.71;1834595;75;21634;-69
2021/05/12 04:54:40;;;;;;;1.87;1.17;;;;;;;18.70;39.28;99992.40;1837579;75;21019;-69
2021/05/12 04:57:07;;;;;;;2.22;1.40;;;;;;;18.69;39.28;99993.45;1841275;75;21021;-70
2021/05/12 04:59:33;;;;;;;2.35;1.17;;;;;;;18.69;39.34;99997.49;1852267;75;21015;-65
2021/05/12 05:02:00;;;;;;;4.85;3.27;;;;;;;18.68;39.35;99993.98;1845321;75;21377;-67
2021/05/12 05:04:27;;;;;;;4.83;3.00;;;;;;;18.71;39.44;99996.23;1866026;75;22208;-66
2021/05/12 05:06:53;;;;;;;3.83;1.52;;;;;;;18.75;39.43;100000.14;1812851;77;21095;-67
2021/05/12 05:09:19;;;;;;;4.10;1.62;;;;;;;18.78;39.30;100006.45;1847006;75;21051;-69
2021/05/12 05:11:46;;;;;;;3.22;1.27;;;;;;;18.75;39.19;100006.05;1815367;77;21056;-68
2021/05/12 05:14:12;;;;;;;2.58;1.35;;;;;;;18.70;39.28;100002.67;1852880;75;21571;-67
2021/05/12 05:16:39;;;;;;;1.35;1.25;;;;;;;18.71;39.35;99991.38;1845096;75;20996;-67
2021/05/12 05:19:06;;;;;;;1.67;1.20;;;;;;;18.69;39.38;100002.87;1855072;75;21047;-69
2021/05/12 05:21:32;;;;;;;1.20;1.10;;;;;;;18.65;39.41;99994.41;1821442;75;21570;-66
2021/05/12 05:23:58;;;;;;;1.47;1.37;;;;;;;18.62;39.41;100004.23;1845413;75;21052;-68
2021/05/12 05:26:25;;;;;;;3.15;1.60;;;;;;;18.60;39.48;100003.63;1764551;79;21753;-66
2021/05/12 05:28:51;;;;;;;2.70;1.42;;;;;;;18.58;39.53;100006.55;1806824;78;21125;-68
2021/05/12 05:31:18;;;;;;;1.37;1.27;;;;;;;18.57;39.58;99996.81;1805237;78;21599;-67
2021/05/12 05:34:03;;;;;;;2.50;1.25;;;;;;;18.57;39.70;99989.27;1793299;79;21544;-68
2021/05/12 05:36:47;;;;;;;1.52;1.32;;;;;;;18.57;39.85;99999.52;1781386;78;21132;-67
2021/05/12 05:39:36;;;;;;;3.05;1.40;;;;;;;18.62;39.92;99990.78;1803054;78;21058;-69
2021/05/12 05:42:20;;;;;;;2.00;1.42;;;;;;;18.67;39.92;99990.98;1800219;77;21166;-67
2021/05/12 05:45:07;;;;;;;3.85;1.47;;;;;;;18.71;39.88;99988.69;1801070;77;21027;-68
2021/05/12 05:47:52;;;;;;;4.45;1.35;;;;;;;18.69;39.85;99986.20;1811099;78;21540;-68
2021/05/12 05:50:37;;;;;;;1.47;1.37;;;;;;;18.70;39.93;99983.83;1757867;80;22286;-69
2021/05/12 05:53:22;;;;;;;1.92;1.55;;;;;;;18.72;39.90;99978.23;1805920;79;21028;-68
2021/05/12 05:56:07;;;;;;;4.50;1.40;;;;;;;18.73;39.92;99982.03;1744987;80;21110;-69
2021/05/12 05:58:51;;;;;;;1.25;1.15;;;;;;;18.75;39.86;99977.79;1774652;79;21650;-69
2021/05/12 06:01:36;;;;;;;2.47;1.20;;;;;;;18.75;39.83;99983.17;1851259;76;21013;-68
2021/05/12 06:04:03;;;;;;;2.58;1.17;;;;;;;18.76;39.83;99984.31;1843374;76;21132;-67
2021/05/12 06:06:48;;;;;;;2.27;1.82;;;;;;;18.81;39.79;99985.87;1814541;77;21056;-68
2021/05/12 06:09:33;;;;;;;11.68;5.55;;;;;;;18.85;39.69;99982.20;1833576;76;22366;-82
2021/05/12 06:12:17;;;;;;;10.68;5.92;;;;;;;18.85;47.63;99958.83;1831635;76;21049;-75
2021/05/12 06:15:03;;;;;;;12.53;5.12;;;;;;;19.01;59.81;99973.62;1803850;77;21061;-71
2021/05/12 06:17:48;;;;;;;10.15;4.80;;;;;;;19.26;63.09;99982.25;1824186;76;21568;-73
2021/05/12 06:20:33;;;;;;;10.30;5.08;;;;;;;19.55;64.77;99964.59;1812641;77;21061;-69
2021/05/12 06:23:18;;;;;;;8.50;4.75;;;;;;;19.82;66.51;99958.44;1840670;76;21267;-70
2021/05/12 06:26:04;;;;;;;7.60;4.90;;;;;;;20.07;67.04;99952.66;1811027;76;21139;-70
2021/05/12 06:28:49;;;;;;;8.35;4.45;;;;;;;20.29;67.47;99953.86;1821765;76;21040;-71
2021/05/12 06:31:34;;;;;;;10.75;4.20;;;;;;;20.49;67.47;99941.45;1836327;76;21111;-69
2021/05/12 06:34:19;;;;;;;7.12;4.28;;;;;;;20.67;66.79;99943.83;1803739;77;21611;-71
2021/05/12 06:37:04;;;;;;;12.78;5.30;;;;;;;20.83;66.07;99946.42;1819098;77;21831;-71
2021/05/12 06:39:52;;;;;;;13.10;4.87;;;;;;;20.97;65.93;99937.05;1814675;77;21565;-70
2021/05/12 06:42:18;;;;;;;11.78;5.20;;;;;;;21.09;65.80;99941.13;1814057;76;21040;-70
2021/05/12 06:44:44;;;;;;;10.60;5.65;;;;;;;21.21;66.03;99954.95;1836387;76;21055;-71
2021/05/12 06:47:11;;;;;;;10.72;5.42;;;;;;;21.32;66.27;99968.16;1833721;76;21098;-71
2021/05/12 06:49:37;;;;;;;13.32;5.65;;;;;;;21.44;66.03;99962.83;1821612;76;21174;-69
2021/05/12 06:52:04;;;;;;;12.35;5.62;;;;;;;21.55;65.39;99968.74;1840411;76;21116;-72
2021/05/12 06:54:30;;;;;;;14.90;5.25;;;;;;;21.67;64.56;99963.36;1821504;77;21073;-71
2021/05/12 06:56:56;;;;;;;15.00;4.95;;;;;;;21.77;63.74;99967.64;1829150;76;21087;-71
2021/05/12 06:59:22;;;;;;;9.60;4.67;;;;;;;21.86;62.88;99957.27;1803024;78;20996;-71
2021/05/12 07:01:48;;;;;;;9.58;5.42;;;;;;;21.95;61.97;99962.61;1834543;76;21041;-72
2021/05/12 07:04:15;;;;;;;10.23;4.92;;;;;;;22.02;61.11;99951.67;1801801;76;21412;-70
2021/05/12 07:06:41;;;;;;;15.32;5.08;;;;;;;22.10;60.19;99963.47;1846570;76;21037;-69
2021/05/12 07:09:07;;;;;;;8.98;4.83;;;;;;;22.15;59.36;99963.56;1838370;76;21052;-72
2021/05/12 07:11:33;;;;;;;10.68;4.50;;;;;;;22.22;58.57;99953.16;1808704;77;21045;-71
2021/05/12 07:14:00;;;;;;;11.12;4.10;;;;;;;22.27;57.79;99954.12;1833232;76;21069;-71
2021/05/12 07:16:26;;;;;;;9.05;3.85;;;;;;;22.32;57.04;99951.49;1799155;79;21677;-71
2021/05/12 07:18:52;;;;;;;7.33;3.33;;;;;;;22.39;56.35;99959.48;1796803;79;21043;-70
2021/05/12 07:21:18;;;;;;;6.30;3.20;;;;;;;22.44;55.71;99947.39;1743303;79;21642;-71
2021/05/12 07:23:44;;;;;;;7.00;3.80;;;;;;;22.49;55.13;99952.91;1781767;78;21073;-71
2021/05/12 07:26:14;;;;;;;7.65;3.87;;;;;;;22.54;54.56;99953.02;1771638;78;21044;-70
2021/05/12 07:28:41;;;;;;;6.65;3.02;;;;;;;22.58;54.02;99959.59;1779633;79;21132;-70
2021/05/12 07:31:07;;;;;;;7.10;3.02;;;;;;;22.64;53.54;99949.67;1775925;79;21075;-69
2021/05/12 07:33:33;;;;;;;5.15;3.40;;;;;;;22.68;53.04;99950.83;1777040;79;21074;-71
2021/05/12 07:36:00;;;;;;;5.62;2.80;;;;;;;22.73;52.54;99950.91;1751525;80;21035;-71
2021/05/12 07:38:26;;;;;;;5.87;3.00;;;;;;;22.78;52.02;99948.30;1777778;78;21140;-69
2021/05/12 07:40:52;;;;;;;6.37;3.33;;;;;;;22.84;51.58;99949.75;1773172;79;21107;-70
2021/05/12 07:43:18;;;;;;;6.47;2.95;;;;;;;22.87;51.13;99939.25;1773828;79;21592;-71
2021/05/12 07:45:44;;;;;;;6.05;2.62;;;;;;;22.92;50.75;99947.99;1769463;79;21107;-71
2021/05/12 07:48:12;;;;;;;6.00;2.87;;;;;;;22.95;50.37;99942.91;1794454;78;21036;-70
2021/05/12 07:50:39;;;;;;;4.15;2.52;;;;;;;22.99;50.02;99940.54;1768201;79;21048;-71
2021/05/12 07:53:06;;;;;;;6.33;2.50;;;;;;;23.03;49.66;99948.48;1801408;78;21138;-70
2021/05/12 07:55:33;;;;;;;5.62;2.25;;;;;;;23.06;49.33;99946.63;1789440;78;21069;-70
2021/05/12 07:58:00;;;;;;;4.83;2.58;;;;;;;23.09;49.01;99955.63;1755790;80;22201;-70
2021/05/12 08:00:26;;;;;;;4.78;2.47;;;;;;;23.12;48.72;99952.44;1792265;78;21058;-70
2021/05/12 08:02:52;;;;;;;5.12;2.30;;;;;;;23.15;48.46;99960.60;1781071;79;21128;-70
2021/05/12 08:05:18;;;;;;;5.28;2.15;;;;;;;23.19;48.15;99952.27;1779684;79;21594;-71
2021/05/12 08:07:44;;;;;;;4.80;2.90;;;;;;;23.22;47.94;99955.84;1803821;78;21029;-70
2021/05/12 08:10:11;;;;;;;3.65;1.85;;;;;;;23.26;47.68;99953.47;1799244;79;21040;-70
2021/05/12 08:12:37;;;;;;;4.95;1.98;;;;;;;23.29;47.42;99948.89;1742516;79;21379;-71
2021/05/12 08:15:06;;;;;;;4.08;2.15;;;;;;;23.31;47.19;99955.73;1754019;79;21144;-70
2021/05/12 08:17:32;;;;;;;3.20;2.15;;;;;;;23.34;46.96;99955.77;1752846;79;21131;-70
2021/05/12 08:20:00;;;;;;;3.92;1.70;;;;;;;;;;1836740;76;21035;-70
2021/05/12 08:22:26;;;;;;;4.40;1.52;;;;;;;23.39;46.53;99945.52;1840478;77;21619;-70
2021/05/12 08:24:52;;;;;;;2.85;2.17;;;;;;;23.42;46.37;99940.97;1842139;76;21040;-71
2021/05/12 08:27:19;;;;;;;1.82;1.60;;;;;;;23.44;46.29;99940.19;1806069;77;21086;-70
2021/05/12 08:29:46;;;;;;;3.62;1.90;;;;;;;23.47;46.26;99935.09;1819290;76;21036;-70
2021/05/12 08:32:14;;;;;;;3.58;1.92;;;;;;;23.50;46.15;99929.16;1798664;77;21052;-70
2021/05/12 08:34:40;;;;;;;2.22;1.87;;;;;;;23.55;46.12;99933.84;1833482;76;22132;-69
2021/05/12 08:37:07;;;;;;;3.58;1.85;;;;;;;23.58;46.12;99936.05;1817257;77;21044;-71
2021/05/12 08:39:34;;;;;;;2.33;2.00;;;;;;;23.59;46.08;99930.92;1820309;77;21121;-69
2021/05/12 08:42:00;;;;;;;3.27;1.65;;;;;;;23.63;46.10;99921.22;1806793;76;21072;-70
2021/05/12 08:44:26;;;;;;;5.00;2.35;;;;;;;23.65;46.06;99926.39;1875776;76;21709;-70
2021/05/12 08:46:53;;;;;;;3.10;1.95;;;;;;;23.65;46.06;99925.85;1839376;76;21169;-71
2021/05/12 08:49:19;;;;;;;2.90;2.00;;;;;;;23.68;46.01;99917.23;1785167;78;21121;-70
2021/05/12 08:51:46;;;;;;;1.70;1.60;;;;;;;23.70;45.92;99915.59;1834891;76;21762;-70
2021/05/12 08:54:13;;;;;;;3.05;1.85;;;;;;;23.73;45.83;99903.72;1848767;76;21134;-70
2021/05/12 08:56:40;;;;;;;2.40;1.90;;;;;;;23.77;45.63;99903.23;1812448;76;21048;-71
2021/05/12 08:59:06;;;;;;;2.15;1.70;;;;;;;23.80;45.48;99902.22;1857342;76;21114;-70
2021/05/12 09:01:33;;;;;;;2.50;1.80;;;;;;;23.82;45.31;99900.08;1853417;76;21547;-70
2021/05/12 09:06:25;;;;;;;3.55;1.60;;;;;;;23.89;45.02;99901.23;1820903;76;23204;-67
2021/05/12 09:08:51;;;;;;;3.20;1.47;;;;;;;23.80;45.00;99907.65;1785205;77;20998;-67
2021/05/12 09:11:17;;;;;;;5.72;1.55;;;;;;;23.83;44.87;99905.77;1791240;77;22077;-67
2021/05/12 09:13:47;;;;;;;2.15;1.60;;;;;;;23.83;44.60;99892.20;1801361;77;21026;-67
2021/05/12 09:16:27;;;;;;;2.00;1.62;;;;;;;23.86;44.44;99897.69;1706851;81;21189;-66
2021/05/12 09:19:10;;;;;;;2.22;1.60;;;;;;;23.87;44.37;99896.59;1710406;81;20960;-67
2021/05/12 09:21:50;;;;;;;2.12;1.80;;;;;;;23.88;44.16;99895.54;1745708;79;21014;-67
2021/05/12 09:24:24;;;;;;;2.75;1.40;;;;;;;23.87;44.07;99904.19;1774855;77;21169;-66
2021/05/12 09:26:53;;;;;;;1.75;1.50;;;;;;;23.88;43.92;99911.81;1770222;79;21020;-66
2021/05/12 09:29:38;;;;;;;3.37;1.72;;;;;;;23.87;43.87;99901.48;1760303;79;20990;-67
2021/05/12 09:32:09;;;;;;;3.33;2.60;;;;;;;23.87;43.88;99901.48;1763519;79;21038;-66
2021/05/12 09:35:01;;;;;;;3.55;1.30;;;;;;;23.88;43.81;99895.54;1791568;77;21050;-66
2021/05/12 09:37:42;;;;;;;3.47;1.60;;;;;;;23.88;43.76;99892.83;1768321;79;21075;-67
2021/05/12 09:40:15;;;;;;;3.52;1.57;;;;;;;23.89;43.74;99887.67;1760335;79;21621;-67
2021/05/12 09:42:43;;;;;;;2.12;1.50;;;;;;;23.90;43.69;99886.06;1765653;79;21082;-65
2021/05/12 09:45:21;;;;;;;2.02;1.37;;;;;;;23.92;43.67;99885.81;1778526;77;21114;-66
2021/05/12 09:47:49;;;;;;;2.67;1.47;;;;;;;23.95;43.69;99881.23;1795200;77;21605;-67
2021/05/12 09:50:23;;;;;;;1.52;1.40;;;;;;;23.99;43.59;99874.76;1780404;77;21120;-67
2021/05/12 09:52:56;;;;;;;;;;;;;;;24.05;43.45;99877.30;1763626;79;21106;-71
2021/05/12 09:55:47;;;;;;;3.95;1.50;;;;;;;24.08;43.36;99878.13;1789799;77;20227;-70
2021/05/12 09:58:17;;;;;;;1.72;1.57;;;;;;;24.04;43.42;99877.00;1777722;77;21775;-70
2021/05/12 10:00:45;;;;;;;1.27;1.17;;;;;;;24.07;43.41;99869.72;1752920;77;20994;-71
2021/05/12 10:03:13;;;;;;;1.42;1.32;;;;;;;24.11;43.44;99871.39;1777588;79;21056;-70
2021/05/12 10:05:57;;;;;;;1.57;1.47;;;;;;;24.13;43.43;99865.98;1742881;79;21015;-71
2021/05/12 10:08:33;;;;;;;1.47;1.37;;;;;;;24.16;43.38;99870.61;1789972;78;21070;-72
2021/05/12 10:11:06;;;;;;;1.60;1.50;;;;;;;24.16;43.28;99869.27;1755414;79;21609;-71
2021/05/12 10:13:34;;;;;;;1.75;1.52;;;;;;;24.17;43.26;99868.20;1803537;77;21055;-71
2021/05/12 10:16:01;;;;;;;1.30;1.20;;;;;;;24.15;43.17;99864.37;1776494;78;21067;-71
2021/05/12 10:18:28;;;;;;;1.70;1.40;;;;;;;24.18;43.07;99858.42;1761381;79;21685;-71
2021/05/12 10:20:57;;;;;;;1.62;1.42;;;;;;;24.20;42.96;99856.81;1754540;79;21054;-70
2021/05/12 10:23:22;;;;;;;1.40;1.30;;;;;;;24.23;42.79;99856.31;1778604;78;21056;-70
2021/05/12 10:25:49;;;;;;;2.77;1.40;;;;;;;24.25;42.72;99843.30;1761560;79;21023;-71
2021/05/12 10:28:15;;;;;;;2.02;1.50;;;;;;;24.27;42.75;99848.75;1769570;79;21782;-71
2021/05/12 10:30:41;;;;;;;1.80;1.32;;;;;;;24.30;42.67;99848.80;1752494;79;21066;-72
2021/05/12 10:33:11;;;;;;;3.37;1.50;;;;;;;24.32;42.45;99854.78;1770123;79;21023;-71
2021/05/12 10:35:38;;;;;;;1.60;1.50;;;;;;;24.31;42.20;99844.45;1774580;79;21043;-71
2021/05/12 10:38:06;;;;;;;3.55;1.65;;;;;;;24.33;42.11;99845.55;1776609;79;21075;-73
2021/05/12 10:40:40;;;;;;;1.67;1.42;;;;;;;24.34;41.93;99840.42;1745330;80;21115;-70
2021/05/12 10:43:19;;;;;;;1.87;1.50;;;;;;;24.36;41.81;99836.06;1766435;79;21067;-72
2021/05/12 10:45:55;;;;;;;1.87;1.30;;;;;;;24.37;41.81;99839.89;1752898;79;21602;-71
2021/05/12 10:48:46;;;;;;;2.90;1.35;;;;;;;24.37;41.94;99843.95;1773497;78;21042;-70
2021/05/12 10:51:30;;;;;;;2.22;1.50;;;;;;;24.38;41.78;99835.27;1789675;78;21059;-70
2021/05/12 10:53:56;;;;;;;3.35;1.67;;;;;;;24.38;41.63;99848.84;1778564;79;21027;-71
2021/05/12 10:56:34;;;;;;;1.37;1.27;;;;;;;24.36;41.51;99835.55;1757471;78;21036;-71
2021/05/12 10:59:03;;;;;;;3.27;1.82;;;;;;;24.38;41.83;99835.27;1786668;79;21035;-72
2021/05/12 11:01:48;;;;;;;2.77;1.80;;;;;;;24.39;42.20;99833.66;1791704;78;21589;-71
2021/05/12 11:04:16;;;;;;;1.80;1.40;;;;;;;24.42;42.43;99835.06;1787889;78;21129;-71
2021/05/12 11:06:55;;;;;;;2.20;1.42;;;;;;;24.44;42.70;99839.15;1784615;78;21074;-70
2021/05/12 11:09:45;;;;;;;2.60;1.98;;;;;;;24.47;42.84;99829.14;1777628;78;21123;-71
2021/05/12 11:12:19;;;;;;;1.45;1.35;;;;;;;24.49;42.79;99822.91;1757058;79;21614;-72
2021/05/12 11:14:55;;;;;;;2.42;1.50;;;;;;;24.48;42.42;99822.62;1766918;79;21043;-70
2021/05/12 11:17:22;;;;;;;1.60;1.40;;;;;;;24.49;42.46;99818.00;1745986;78;21039;-72
2021/05/12 11:19:57;;;;;;;1.80;1.52;;;;;;;24.48;42.41;99813.11;1788841;78;21131;-71
2021/05/12 11:25:31;;;;;;;1.82;1.50;;;;;;;24.51;42.00;99815.36;1790641;79;21551;-71
2021/05/12 11:33:28;;;;;;;1.82;1.40;;;;;;;24.59;41.90;99792.86;1760880;79;21058;-72
2021/05/12 11:36:09;;;;;;;1.50;1.40;;;;;;;24.61;42.17;99799.69;1762012;79;21067;-72
2021/05/12 11:38:31;;;;;;;1.98;1.47;;;;;;;24.63;42.17;99798.89;1751719;79;21023;-73
2021/05/12 11:41:18;;;;;;;3.22;1.30;;;;;;;24.62;42.01;99804.57;1785619;78;21070;-73
2021/05/12 11:43:53;;;;;;;4.60;1.50;;;;;;;24.61;41.73;99792.89;1782577;78;21050;-74
2021/05/12 11:46:29;;;;;;;1.25;1.15;;;;;;;24.61;41.44;99794.77;1749422;79;21732;-73
2021/05/12 11:49:04;;;;;;;1.52;1.20;;;;;;;24.60;41.46;99800.75;1748065;79;21051;-74
2021/05/12 11:51:38;;;;;;;1.55;1.37;;;;;;;24.60;41.29;99793.15;1780736;78;21035;-74
2021/05/12 11:54:08;;;;;;;2.27;1.32;;;;;;;24.61;41.31;99789.34;1766839;79;21059;-75
2021/05/12 11:56:39;;;;;;;1.57;1.47;;;;;;;24.61;41.33;99776.59;1784626;78;21042;-74